Terminal Aerodrome Forecast
Issued by NWS

Home | Current Version | Previous Version | Text Only | Print | Product List | Glossary On
Versions: 1 2 3 4 5 6 7 8 9 10 11 12 13 14 15 16 17 18 19 20
000
FTUS44 KOHX 280500
TAFCKV
TAF
KCKV 280522Z 2806/2906 36009KT 5SM BR SCT003 OVC025
      TEMPO 2806/2808 2SM -SHRA BR BKN003 OVC025
     FM280800 34010KT 3SM -SHRA BR OVC004
     FM282000 36006KT 5SM BR OVC008
      TEMPO 2820/2824 3SM -SHRA BR
     FM290000 02005KT P6SM VCSH OVC015=

USA.gov is the U.S. government's official web portal to all federal, state and local government web resources and services.